Odessa, Texas
Current Conditions -  °F | °C
As of 11:53 AM on Friday 31 Oct 2014 (Local Time) from KODO Reporting Station
Clear Clear  
Wind Chill: 63°   Ceiling: Unl
Heat Index: 63°   Visibility: 10mi
Dew Point: 33°   Wind: 16mph
Humidity: 33%   Direction: 100°E
Pressure: 30.42"   Gusts: NA
Location:  31.85°N, 102.37°W
Report Text: KODO 311653Z AUTO 10014KT 10SM CLR 17/01 A3042 RMK AO2 SLP270 T01720006
Loading
Personal Weather Stations






























Interactive Weather Map
Tropical Storm Tracking
New forecast layout! Learn more

10-Day Weather Forecast

Advertisements
Track Severe Weather on mobile